sensor_id;sensor_type;location;lat;lon;timestamp;pressure;altitude;pressure_sealevel;temperature;humidity
30302;BME280;17111;52.130;5.028;2023-04-02T00:02:59;101336.91;;;18.22;51.41
30302;BME280;17111;52.130;5.028;2023-04-02T00:08:22;101345.09;;;18.21;51.65
30302;BME280;17111;52.130;5.028;2023-04-02T00:10:56;101350.75;;;18.18;51.96
30302;BME280;17111;52.130;5.028;2023-04-02T00:13:24;101350.88;;;18.16;51.87
30302;BME280;17111;52.130;5.028;2023-04-02T00:15:56;101351.59;;;18.18;51.74
30302;BME280;17111;52.130;5.028;2023-04-02T00:18:24;101355.56;;;18.14;51.84
30302;BME280;17111;52.130;5.028;2023-04-02T00:21:09;101367.41;;;18.12;52.02
30302;BME280;17111;52.130;5.028;2023-04-02T00:23:39;101363.03;;;18.11;51.64
30302;BME280;17111;52.130;5.028;2023-04-02T00:26:37;101367.16;;;18.05;51.91
30302;BME280;17111;52.130;5.028;2023-04-02T00:29:06;101379.56;;;18.06;51.73
30302;BME280;17111;52.130;5.028;2023-04-02T00:31:33;101384.09;;;18.06;51.88
30302;BME280;17111;52.130;5.028;2023-04-02T00:34:03;101390.41;;;18.05;51.87
30302;BME280;17111;52.130;5.028;2023-04-02T00:36:32;101380.84;;;18.02;52.04
30302;BME280;17111;52.130;5.028;2023-04-02T00:39:03;101403.28;;;18.01;52.26
30302;BME280;17111;52.130;5.028;2023-04-02T00:41:36;101406.94;;;18.00;51.94
30302;BME280;17111;52.130;5.028;2023-04-02T00:44:04;101401.72;;;17.98;51.79
30302;BME280;17111;52.130;5.028;2023-04-02T00:46:39;101409.03;;;17.96;51.92
30302;BME280;17111;52.130;5.028;2023-04-02T00:49:29;101420.91;;;17.94;52.06
30302;BME280;17111;52.130;5.028;2023-04-02T00:52:00;101428.81;;;17.95;51.99
30302;BME280;17111;52.130;5.028;2023-04-02T00:54:31;101421.88;;;17.93;52.26
30302;BME280;17111;52.130;5.028;2023-04-02T00:56:58;101430.06;;;17.91;51.82
30302;BME280;17111;52.130;5.028;2023-04-02T00:59:31;101440.81;;;17.91;52.12
30302;BME280;17111;52.130;5.028;2023-04-02T01:04:40;101434.88;;;17.88;52.03
30302;BME280;17111;52.130;5.028;2023-04-02T01:07:09;101445.59;;;17.88;52.06
30302;BME280;17111;52.130;5.028;2023-04-02T01:10:15;101445.00;;;17.84;51.93
30302;BME280;17111;52.130;5.028;2023-04-02T01:12:50;101454.91;;;17.84;52.03
30302;BME280;17111;52.130;5.028;2023-04-02T01:15:29;101449.69;;;17.82;52.06
30302;BME280;17111;52.130;5.028;2023-04-02T01:18:07;101452.38;;;17.82;51.92
30302;BME280;17111;52.130;5.028;2023-04-02T01:23:26;101469.72;;;17.78;52.02
30302;BME280;17111;52.130;5.028;2023-04-02T01:26:17;101474.50;;;17.74;52.12
30302;BME280;17111;52.130;5.028;2023-04-02T01:29:00;101476.31;;;17.74;52.58
30302;BME280;17111;52.130;5.028;2023-04-02T01:31:28;101480.81;;;17.73;51.87
30302;BME280;17111;52.130;5.028;2023-04-02T01:33:56;101494.34;;;17.72;51.92
30302;BME280;17111;52.130;5.028;2023-04-02T01:39:24;101499.13;;;17.68;52.20
30302;BME280;17111;52.130;5.028;2023-04-02T01:44:48;101509.28;;;17.65;52.21
30302;BME280;17111;52.130;5.028;2023-04-02T01:47:20;101517.34;;;17.65;52.24
30302;BME280;17111;52.130;5.028;2023-04-02T01:49:47;101513.78;;;17.64;52.13
30302;BME280;17111;52.130;5.028;2023-04-02T01:52:32;101519.28;;;17.63;52.39
30302;BME280;17111;52.130;5.028;2023-04-02T01:55:00;101519.44;;;17.61;52.07
30302;BME280;17111;52.130;5.028;2023-04-02T01:57:28;101526.75;;;17.59;52.05
30302;BME280;17111;52.130;5.028;2023-04-02T01:59:54;101531.25;;;17.59;52.14
30302;BME280;17111;52.130;5.028;2023-04-02T02:02:21;101528.72;;;17.57;51.74
30302;BME280;17111;52.130;5.028;2023-04-02T02:04:48;101542.13;;;17.57;51.80
30302;BME280;17111;52.130;5.028;2023-04-02T02:07:17;101541.41;;;17.55;51.94
30302;BME280;17111;52.130;5.028;2023-04-02T02:09:46;101548.59;;;17.55;51.99
30302;BME280;17111;52.130;5.028;2023-04-02T02:12:14;101554.94;;;17.54;52.05
30302;BME280;17111;52.130;5.028;2023-04-02T02:14:49;101557.75;;;17.52;51.88
30302;BME280;17111;52.130;5.028;2023-04-02T02:17:18;101558.72;;;17.51;51.89
30302;BME280;17111;52.130;5.028;2023-04-02T02:19:52;101565.06;;;17.50;52.03
30302;BME280;17111;52.130;5.028;2023-04-02T02:22:26;101567.75;;;17.50;52.11
30302;BME280;17111;52.130;5.028;2023-04-02T02:24:55;101568.75;;;17.49;52.02
30302;BME280;17111;52.130;5.028;2023-04-02T02:29:59;101582.25;;;17.47;52.18
30302;BME280;17111;52.130;5.028;2023-04-02T02:32:31;101586.78;;;17.47;52.23
30302;BME280;17111;52.130;5.028;2023-04-02T02:35:15;101589.59;;;17.45;51.77
30302;BME280;17111;52.130;5.028;2023-04-02T02:37:47;101593.13;;;17.46;52.07
30302;BME280;17111;52.130;5.028;2023-04-02T02:40:22;101596.78;;;17.45;52.14
30302;BME280;17111;52.130;5.028;2023-04-02T02:42:56;101602.25;;;17.43;52.00
30302;BME280;17111;52.130;5.028;2023-04-02T02:45:28;101605.94;;;17.42;52.06
30302;BME280;17111;52.130;5.028;2023-04-02T02:47:59;101609.59;;;17.41;52.05
30302;BME280;17111;52.130;5.028;2023-04-02T02:50:29;101625.69;;;17.41;52.19
30302;BME280;17111;52.130;5.028;2023-04-02T02:52:58;101622.25;;;17.39;52.35
30302;BME280;17111;52.130;5.028;2023-04-02T02:55:30;101625.94;;;17.38;52.11
30302;BME280;17111;52.130;5.028;2023-04-02T02:58:17;101625.34;;;17.35;52.48
30302;BME280;17111;52.130;5.028;2023-04-02T03:00:45;101632.41;;;17.36;51.39
30302;BME280;17111;52.130;5.028;2023-04-02T03:03:16;101632.53;;;17.34;51.79
30302;BME280;17111;52.130;5.028;2023-04-02T03:05:49;101645.19;;;17.32;52.08
30302;BME280;17111;52.130;5.028;2023-04-02T03:08:52;101654.47;;;17.28;52.03
30302;BME280;17111;52.130;5.028;2023-04-02T03:14:37;101668.72;;;17.28;52.01
30302;BME280;17111;52.130;5.028;2023-04-02T03:17:16;101678.59;;;17.28;52.05
30302;BME280;17111;52.130;5.028;2023-04-02T03:22:48;101682.38;;;17.25;52.20
30302;BME280;17111;52.130;5.028;2023-04-02T03:25:58;101689.59;;;17.25;51.93
30302;BME280;17111;52.130;5.028;2023-04-02T03:28:30;101692.25;;;17.25;51.79
30302;BME280;17111;52.130;5.028;2023-04-02T03:31:11;101701.38;;;17.22;52.00
30302;BME280;17111;52.130;5.028;2023-04-02T03:33:45;101705.31;;;17.18;52.36
30302;BME280;17111;52.130;5.028;2023-04-02T03:39:14;101723.78;;;17.33;52.46
30302;BME280;17111;52.130;5.028;2023-04-02T03:41:54;101721.03;;;17.44;51.72
30302;BME280;17111;52.130;5.028;2023-04-02T03:44:45;101730.00;;;17.54;51.45
30302;BME280;17111;52.130;5.028;2023-04-02T03:50:07;101742.84;;;17.71;50.97
30302;BME280;17111;52.130;5.028;2023-04-02T03:52:37;101752.25;;;17.77;50.94
30302;BME280;17111;52.130;5.028;2023-04-02T03:55:18;101758.91;;;17.83;50.89
30302;BME280;17111;52.130;5.028;2023-04-02T03:57:57;101756.69;;;17.88;50.55
30302;BME280;17111;52.130;5.028;2023-04-02T04:00:35;101758.25;;;17.90;50.69
30302;BME280;17111;52.130;5.028;2023-04-02T04:03:23;101759.81;;;17.93;50.37
30302;BME280;17111;52.130;5.028;2023-04-02T04:05:57;101773.81;;;17.96;50.51
30302;BME280;17111;52.130;5.028;2023-04-02T04:08:44;101773.72;;;17.98;50.54
30302;BME280;17111;52.130;5.028;2023-04-02T04:11:18;101777.09;;;18.00;50.08
30302;BME280;17111;52.130;5.028;2023-04-02T04:13:58;101786.88;;;18.01;50.19
30302;BME280;17111;52.130;5.028;2023-04-02T04:16:32;101791.25;;;18.02;50.09
30302;BME280;17111;52.130;5.028;2023-04-02T04:19:02;101800.97;;;18.03;49.97
30302;BME280;17111;52.130;5.028;2023-04-02T04:21:30;101806.34;;;18.03;50.00
30302;BME280;17111;52.130;5.028;2023-04-02T04:24:05;101812.69;;;18.02;50.27
30302;BME280;17111;52.130;5.028;2023-04-02T04:26:42;101810.03;;;18.02;50.14
30302;BME280;17111;52.130;5.028;2023-04-02T04:29:25;101815.38;;;18.02;49.70
30302;BME280;17111;52.130;5.028;2023-04-02T04:31:52;101824.41;;;18.01;49.17
30302;BME280;17111;52.130;5.028;2023-04-02T04:34:39;101830.03;;;17.98;49.92
30302;BME280;17111;52.130;5.028;2023-04-02T04:37:38;101833.34;;;17.90;49.97
30302;BME280;17111;52.130;5.028;2023-04-02T04:40:15;101848.13;;;17.85;49.78
30302;BME280;17111;52.130;5.028;2023-04-02T04:42:45;101845.13;;;17.78;49.98
30302;BME280;17111;52.130;5.028;2023-04-02T04:45:37;101851.22;;;17.69;50.44
30302;BME280;17111;52.130;5.028;2023-04-02T04:48:15;101854.13;;;17.66;50.56
30302;BME280;17111;52.130;5.028;2023-04-02T04:50:59;101861.06;;;17.68;50.54
30302;BME280;17111;52.130;5.028;2023-04-02T04:53:28;101866.91;;;17.73;50.38
30302;BME280;17111;52.130;5.028;2023-04-02T04:56:00;101870.94;;;17.79;50.53
30302;BME280;17111;52.130;5.028;2023-04-02T05:01:21;101887.09;;;17.89;50.38
30302;BME280;17111;52.130;5.028;2023-04-02T05:06:42;101891.13;;;17.94;49.97
30302;BME280;17111;52.130;5.028;2023-04-02T05:09:21;101899.88;;;17.96;49.85
30302;BME280;17111;52.130;5.028;2023-04-02T05:15:29;101909.66;;;17.97;50.02
30302;BME280;17111;52.130;5.028;2023-04-02T05:18:11;101913.19;;;17.98;49.80
30302;BME280;17111;52.130;5.028;2023-04-02T05:20:53;101930.97;;;17.99;49.69
30302;BME280;17111;52.130;5.028;2023-04-02T05:23:25;101927.31;;;18.00;49.70
30302;BME280;17111;52.130;5.028;2023-04-02T05:26:07;101935.34;;;18.00;49.34
30302;BME280;17111;52.130;5.028;2023-04-02T05:28:45;101938.03;;;18.00;49.21
30302;BME280;17111;52.130;5.028;2023-04-02T05:31:17;101951.47;;;18.00;50.02
30302;BME280;17111;52.130;5.028;2023-04-02T05:33:47;101959.63;;;17.98;49.36
30302;BME280;17111;52.130;5.028;2023-04-02T05:36:19;101963.41;;;17.96;49.80
30302;BME280;17111;52.130;5.028;2023-04-02T05:38:49;101962.72;;;17.94;49.65
30302;BME280;17111;52.130;5.028;2023-04-02T05:41:36;101970.00;;;17.92;49.30
30302;BME280;17111;52.130;5.028;2023-04-02T05:46:35;102001.88;;;17.85;49.68
30302;BME280;17111;52.130;5.028;2023-04-02T05:49:08;102005.03;;;17.79;49.55
30302;BME280;17111;52.130;5.028;2023-04-02T05:51:42;102012.66;;;17.72;49.38
30302;BME280;17111;52.130;5.028;2023-04-02T05:54:28;102025.13;;;17.62;49.70
30302;BME280;17111;52.130;5.028;2023-04-02T05:57:02;102031.94;;;17.55;49.96
30302;BME280;17111;52.130;5.028;2023-04-02T05:59:35;102031.69;;;17.47;49.92
30302;BME280;17111;52.130;5.028;2023-04-02T06:02:18;102038.13;;;17.44;50.55
30302;BME280;17111;52.130;5.028;2023-04-02T06:04:57;102048.25;;;17.52;50.18
30302;BME280;17111;52.130;5.028;2023-04-02T06:07:49;102048.25;;;17.63;50.28
30302;BME280;17111;52.130;5.028;2023-04-02T06:10:26;102059.75;;;17.76;49.79
30302;BME280;17111;52.130;5.028;2023-04-02T06:15:29;102061.56;;;17.98;49.13
30302;BME280;17111;52.130;5.028;2023-04-02T06:20:45;102083.75;;;18.23;49.23
30302;BME280;17111;52.130;5.028;2023-04-02T06:23:18;102083.81;;;18.33;48.63
30302;BME280;17111;52.130;5.028;2023-04-02T06:25:54;102089.31;;;18.42;48.76
30302;BME280;17111;52.130;5.028;2023-04-02T06:28:26;102091.97;;;18.54;48.70
30302;BME280;17111;52.130;5.028;2023-04-02T06:30:59;102096.56;;;18.63;48.35
30302;BME280;17111;52.130;5.028;2023-04-02T06:33:26;102096.81;;;18.71;48.08
30302;BME280;17111;52.130;5.028;2023-04-02T06:35:53;102115.00;;;18.79;48.23
30302;BME280;17111;52.130;5.028;2023-04-02T06:38:26;102115.19;;;18.87;48.02
30302;BME280;17111;52.130;5.028;2023-04-02T06:40:58;102121.88;;;18.92;47.54
30302;BME280;17111;52.130;5.028;2023-04-02T06:44:13;102128.31;;;19.01;47.52
30302;BME280;17111;52.130;5.028;2023-04-02T06:46:46;102142.94;;;19.08;47.39
30302;BME280;17111;52.130;5.028;2023-04-02T06:52:04;102154.91;;;19.15;47.21
30302;BME280;17111;52.130;5.028;2023-04-02T06:54:31;102158.28;;;19.17;47.55
30302;BME280;17111;52.130;5.028;2023-04-02T06:56:58;102153.19;;;19.14;47.21
30302;BME280;17111;52.130;5.028;2023-04-02T06:59:25;102160.53;;;19.12;46.78
30302;BME280;17111;52.130;5.028;2023-04-02T07:01:53;102163.75;;;19.06;47.09
30302;BME280;17111;52.130;5.028;2023-04-02T07:04:20;102164.38;;;18.98;47.20
30302;BME280;17111;52.130;5.028;2023-04-02T07:06:47;102161.34;;;18.92;47.34
30302;BME280;17111;52.130;5.028;2023-04-02T07:09:14;102173.47;;;18.86;47.36
30302;BME280;17111;52.130;5.028;2023-04-02T07:11:41;102184.84;;;18.79;47.58
30302;BME280;17111;52.130;5.028;2023-04-02T07:14:11;102186.16;;;18.73;47.95
30302;BME280;17111;52.130;5.028;2023-04-02T07:16:39;102203.47;;;18.69;47.57
30302;BME280;17111;52.130;5.028;2023-04-02T07:19:08;102204.97;;;18.62;47.78
30302;BME280;17111;52.130;5.028;2023-04-02T07:21:41;102213.38;;;18.57;47.68
30302;BME280;17111;52.130;5.028;2023-04-02T07:24:08;102212.91;;;18.52;47.88
30302;BME280;17111;52.130;5.028;2023-04-02T07:26:34;102212.28;;;18.48;47.58
30302;BME280;17111;52.130;5.028;2023-04-02T07:29:01;102217.81;;;18.47;47.66
30302;BME280;17111;52.130;5.028;2023-04-02T07:31:28;102218.88;;;18.44;48.12
30302;BME280;17111;52.130;5.028;2023-04-02T07:33:57;102215.59;;;18.41;47.79
30302;BME280;17111;52.130;5.028;2023-04-02T07:36:27;102220.25;;;18.39;47.99
30302;BME280;17111;52.130;5.028;2023-04-02T07:38:54;102234.75;;;18.36;48.04
30302;BME280;17111;52.130;5.028;2023-04-02T07:41:21;102239.50;;;18.33;48.26
30302;BME280;17111;52.130;5.028;2023-04-02T07:43:49;102246.84;;;18.31;48.16
30302;BME280;17111;52.130;5.028;2023-04-02T07:46:16;102249.91;;;18.26;48.28
30302;BME280;17111;52.130;5.028;2023-04-02T07:48:45;102259.16;;;18.22;48.13
30302;BME280;17111;52.130;5.028;2023-04-02T07:51:16;102257.06;;;18.14;48.26
30302;BME280;17111;52.130;5.028;2023-04-02T07:53:43;102258.38;;;18.09;48.31
30302;BME280;17111;52.130;5.028;2023-04-02T07:56:16;102265.22;;;18.02;48.82
30302;BME280;17111;52.130;5.028;2023-04-02T07:58:44;102275.44;;;17.96;49.04
30302;BME280;17111;52.130;5.028;2023-04-02T08:01:20;102270.66;;;17.89;48.56
30302;BME280;17111;52.130;5.028;2023-04-02T08:03:49;102273.84;;;17.83;48.77
30302;BME280;17111;52.130;5.028;2023-04-02T08:06:20;102284.06;;;17.78;48.96
30302;BME280;17111;52.130;5.028;2023-04-02T08:08:47;102283.63;;;17.71;49.03
30302;BME280;17111;52.130;5.028;2023-04-02T08:11:13;102281.06;;;17.69;49.54
30302;BME280;17111;52.130;5.028;2023-04-02T08:13:40;102297.69;;;17.74;49.95
30302;BME280;17111;52.130;5.028;2023-04-02T08:16:07;102296.88;;;17.85;50.02
30302;BME280;17111;52.130;5.028;2023-04-02T08:18:34;102312.91;;;17.98;49.27
30302;BME280;17111;52.130;5.028;2023-04-02T08:21:04;102311.81;;;18.12;49.25
30302;BME280;17111;52.130;5.028;2023-04-02T08:23:32;102320.03;;;18.21;48.66
30302;BME280;17111;52.130;5.028;2023-04-02T08:25:58;102326.38;;;18.32;48.62
30302;BME280;17111;52.130;5.028;2023-04-02T08:28:25;102321.03;;;18.43;48.81
30302;BME280;17111;52.130;5.028;2023-04-02T08:30:52;102327.38;;;18.53;48.30
30302;BME280;17111;52.130;5.028;2023-04-02T08:33:19;102323.13;;;18.62;48.38
30302;BME280;17111;52.130;5.028;2023-04-02T08:35:47;102336.72;;;18.71;47.96
30302;BME280;17111;52.130;5.028;2023-04-02T08:38:16;102343.31;;;18.79;47.72
30302;BME280;17111;52.130;5.028;2023-04-02T08:40:44;102345.50;;;18.85;48.18
30302;BME280;17111;52.130;5.028;2023-04-02T08:46:05;102357.22;;;18.95;48.00
30302;BME280;17111;52.130;5.028;2023-04-02T08:48:36;102358.81;;;18.97;47.84
30302;BME280;17111;52.130;5.028;2023-04-02T08:51:07;102364.91;;;18.99;47.95
30302;BME280;17111;52.130;5.028;2023-04-02T08:53:41;102366.50;;;19.02;47.93
30302;BME280;17111;52.130;5.028;2023-04-02T08:56:14;102375.28;;;19.04;47.94
30302;BME280;17111;52.130;5.028;2023-04-02T09:04:19;102392.03;;;19.08;48.07
30302;BME280;17111;52.130;5.028;2023-04-02T09:06:47;102386.91;;;19.05;48.12
30302;BME280;17111;52.130;5.028;2023-04-02T09:09:15;102403.28;;;19.02;48.12
30302;BME280;17111;52.130;5.028;2023-04-02T09:11:55;102406.69;;;19.04;49.03
30302;BME280;17111;52.130;5.028;2023-04-02T09:14:40;102409.25;;;19.05;49.37
30302;BME280;17111;52.130;5.028;2023-04-02T09:17:18;102417.31;;;19.05;50.20
30302;BME280;17111;52.130;5.028;2023-04-02T09:20:22;102416.81;;;19.00;50.25
30302;BME280;17111;52.130;5.028;2023-04-02T09:22:50;102415.59;;;19.04;50.33
30302;BME280;17111;52.130;5.028;2023-04-02T09:25:23;102420.50;;;19.10;50.14
30302;BME280;17111;52.130;5.028;2023-04-02T09:27:51;102420.47;;;19.21;50.45
30302;BME280;17111;52.130;5.028;2023-04-02T09:33:02;102428.91;;;19.51;49.67
30302;BME280;17111;52.130;5.028;2023-04-02T09:35:53;102430.38;;;19.66;50.18
30302;BME280;17111;52.130;5.028;2023-04-02T09:38:25;102426.28;;;19.83;49.58
30302;BME280;17111;52.130;5.028;2023-04-02T09:41:04;102426.97;;;19.96;49.19
30302;BME280;17111;52.130;5.028;2023-04-02T09:43:36;102435.63;;;20.11;48.93
30302;BME280;17111;52.130;5.028;2023-04-02T09:46:27;102431.16;;;20.21;48.58
30302;BME280;17111;52.130;5.028;2023-04-02T09:48:54;102431.75;;;20.25;48.67
30302;BME280;17111;52.130;5.028;2023-04-02T09:51:25;102434.59;;;20.23;48.54
30302;BME280;17111;52.130;5.028;2023-04-02T09:56:35;102445.59;;;20.20;47.95
30302;BME280;17111;52.130;5.028;2023-04-02T09:59:04;102438.38;;;20.20;49.06
30302;BME280;17111;52.130;5.028;2023-04-02T10:04:33;102446.72;;;20.17;49.12
30302;BME280;17111;52.130;5.028;2023-04-02T10:07:01;102445.75;;;20.18;49.09
30302;BME280;17111;52.130;5.028;2023-04-02T10:09:29;102448.28;;;20.20;49.72
30302;BME280;17111;52.130;5.028;2023-04-02T10:11:57;102450.13;;;20.19;48.89
30302;BME280;17111;52.130;5.028;2023-04-02T10:14:32;102450.00;;;20.21;49.87
30302;BME280;17111;52.130;5.028;2023-04-02T10:19:47;102460.06;;;20.19;50.88
30302;BME280;17111;52.130;5.028;2023-04-02T10:22:16;102466.47;;;20.07;46.45
30302;BME280;17111;52.130;5.028;2023-04-02T10:24:43;102476.63;;;20.03;46.72
30302;BME280;17111;52.130;5.028;2023-04-02T10:27:31;102470.66;;;20.00;49.22
30302;BME280;17111;52.130;5.028;2023-04-02T10:30:02;102480.56;;;19.99;48.87
30302;BME280;17111;52.130;5.028;2023-04-02T10:40:58;102492.03;;;20.01;48.66
30302;BME280;17111;52.130;5.028;2023-04-02T10:49:00;102494.72;;;20.01;47.78
30302;BME280;17111;52.130;5.028;2023-04-02T10:51:48;102500.72;;;20.05;48.33
30302;BME280;17111;52.130;5.028;2023-04-02T10:59:56;102514.41;;;20.13;47.49
30302;BME280;17111;52.130;5.028;2023-04-02T11:07:52;102506.97;;;20.49;46.88
30302;BME280;17111;52.130;5.028;2023-04-02T11:10:20;102513.28;;;20.59;46.60
30302;BME280;17111;52.130;5.028;2023-04-02T11:13:10;102507.25;;;20.66;46.07
30302;BME280;17111;52.130;5.028;2023-04-02T11:15:38;102509.16;;;20.76;45.91
30302;BME280;17111;52.130;5.028;2023-04-02T11:18:05;102516.69;;;20.82;45.37
30302;BME280;17111;52.130;5.028;2023-04-02T11:23:17;102530.38;;;20.90;45.00
30302;BME280;17111;52.130;5.028;2023-04-02T11:25:44;102530.97;;;20.93;45.02
30302;BME280;17111;52.130;5.028;2023-04-02T11:28:29;102539.78;;;20.95;45.15
30302;BME280;17111;52.130;5.028;2023-04-02T11:30:56;102532.16;;;21.01;45.11
30302;BME280;17111;52.130;5.028;2023-04-02T11:33:41;102541.09;;;21.01;44.52
30302;BME280;17111;52.130;5.028;2023-04-02T11:37:28;102544.38;;;21.05;44.14
30302;BME280;17111;52.130;5.028;2023-04-02T11:39:46;102548.66;;;21.07;43.84
30302;BME280;17111;52.130;5.028;2023-04-02T11:44:44;102550.22;;;21.10;44.43
30302;BME280;17111;52.130;5.028;2023-04-02T11:47:17;102553.78;;;21.10;44.03
30302;BME280;17111;52.130;5.028;2023-04-02T11:55:19;102571.13;;;21.17;44.29
30302;BME280;17111;52.130;5.028;2023-04-02T12:06:07;102574.63;;;21.29;43.36
30302;BME280;17111;52.130;5.028;2023-04-02T12:11:34;102574.72;;;21.39;43.20
30302;BME280;17111;52.130;5.028;2023-04-02T12:14:29;102563.38;;;21.45;42.87
30302;BME280;17111;52.130;5.028;2023-04-02T12:16:53;102561.97;;;21.51;43.22
30302;BME280;17111;52.130;5.028;2023-04-02T12:19:21;102561.59;;;21.55;42.93
30302;BME280;17111;52.130;5.028;2023-04-02T12:21:50;102572.09;;;21.58;42.72
30302;BME280;17111;52.130;5.028;2023-04-02T12:24:22;102577.97;;;21.63;42.45
30302;BME280;17111;52.130;5.028;2023-04-02T12:27:16;102581.38;;;21.65;42.13
30302;BME280;17111;52.130;5.028;2023-04-02T12:29:43;102576.41;;;21.71;42.55
30302;BME280;17111;52.130;5.028;2023-04-02T12:32:20;102579.84;;;21.73;41.86
30302;BME280;17111;52.130;5.028;2023-04-02T12:34:50;102584.97;;;21.76;42.22
30302;BME280;17111;52.130;5.028;2023-04-02T12:37:26;102587.53;;;21.77;42.00
30302;BME280;17111;52.130;5.028;2023-04-02T12:39:55;102576.59;;;21.79;42.39
30302;BME280;17111;52.130;5.028;2023-04-02T12:42:31;102580.16;;;21.79;41.58
30302;BME280;17111;52.130;5.028;2023-04-02T12:44:59;102589.97;;;21.80;41.88
30302;BME280;17111;52.130;5.028;2023-04-02T12:47:27;102585.41;;;21.81;41.85
30302;BME280;17111;52.130;5.028;2023-04-02T12:49:55;102593.66;;;21.79;41.24
30302;BME280;17111;52.130;5.028;2023-04-02T12:52:24;102593.66;;;21.79;41.71
30302;BME280;17111;52.130;5.028;2023-04-02T12:54:59;102596.47;;;21.78;41.08
30302;BME280;17111;52.130;5.028;2023-04-02T12:59:57;102589.38;;;21.77;41.68
30302;BME280;17111;52.130;5.028;2023-04-02T13:02:31;102603.13;;;21.74;41.52
30302;BME280;17111;52.130;5.028;2023-04-02T13:05:00;102597.75;;;21.74;41.32
30302;BME280;17111;52.130;5.028;2023-04-02T13:07:29;102601.69;;;21.69;41.35
30302;BME280;17111;52.130;5.028;2023-04-02T13:10:24;102596.56;;;21.66;41.04
30302;BME280;17111;52.130;5.028;2023-04-02T13:12:59;102600.41;;;21.64;40.92
30302;BME280;17111;52.130;5.028;2023-04-02T13:15:27;102604.94;;;21.63;41.19
30302;BME280;17111;52.130;5.028;2023-04-02T13:20:39;102607.31;;;21.57;41.18
30302;BME280;17111;52.130;5.028;2023-04-02T13:23:32;102605.03;;;21.52;40.13
30302;BME280;17111;52.130;5.028;2023-04-02T13:26:16;102607.00;;;21.50;40.30
30302;BME280;17111;52.130;5.028;2023-04-02T13:29:00;102603.59;;;21.48;40.64
30302;BME280;17111;52.130;5.028;2023-04-02T13:31:28;102613.66;;;21.46;41.41
30302;BME280;17111;52.130;5.028;2023-04-02T13:33:56;102608.41;;;21.44;41.09
30302;BME280;17111;52.130;5.028;2023-04-02T13:36:23;102611.25;;;21.43;41.23
30302;BME280;17111;52.130;5.028;2023-04-02T13:38:50;102608.66;;;21.41;40.97
30302;BME280;17111;52.130;5.028;2023-04-02T13:41:25;102618.72;;;21.39;40.43
30302;BME280;17111;52.130;5.028;2023-04-02T13:43:53;102622.13;;;21.41;40.71
30302;BME280;17111;52.130;5.028;2023-04-02T13:46:23;102624.13;;;21.39;40.84
30302;BME280;17111;52.130;5.028;2023-04-02T13:48:52;102624.97;;;21.40;40.68
30302;BME280;17111;52.130;5.028;2023-04-02T13:51:22;102630.38;;;21.40;40.26
30302;BME280;17111;52.130;5.028;2023-04-02T13:53:53;102627.69;;;21.40;40.05
30302;BME280;17111;52.130;5.028;2023-04-02T13:56:22;102630.38;;;21.40;40.52
30302;BME280;17111;52.130;5.028;2023-04-02T13:58:50;102637.88;;;21.36;40.40
30302;BME280;17111;52.130;5.028;2023-04-02T14:01:18;102645.38;;;21.33;40.26
30302;BME280;17111;52.130;5.028;2023-04-02T14:03:46;102641.06;;;21.30;40.63
30302;BME280;17111;52.130;5.028;2023-04-02T14:09:42;102638.31;;;21.20;40.26
30302;BME280;17111;52.130;5.028;2023-04-02T14:12:19;102630.47;;;21.17;39.92
30302;BME280;17111;52.130;5.028;2023-04-02T14:31:05;102659.00;;;20.99;41.03
30302;BME280;17111;52.130;5.028;2023-04-02T14:36:37;102653.00;;;20.95;41.29
30302;BME280;17111;52.130;5.028;2023-04-02T14:39:27;102665.75;;;20.93;41.50
30302;BME280;17111;52.130;5.028;2023-04-02T14:42:05;102664.91;;;20.93;41.39
30302;BME280;17111;52.130;5.028;2023-04-02T14:44:40;102668.72;;;20.90;41.27
30302;BME280;17111;52.130;5.028;2023-04-02T14:47:29;102672.53;;;20.88;41.66
30302;BME280;17111;52.130;5.028;2023-04-02T14:50:08;102670.81;;;20.87;41.36
30302;BME280;17111;52.130;5.028;2023-04-02T14:52:37;102679.00;;;20.85;41.51
30302;BME280;17111;52.130;5.028;2023-04-02T14:55:12;102679.16;;;20.84;41.07
30302;BME280;17111;52.130;5.028;2023-04-02T14:57:48;102674.75;;;20.83;41.10
30302;BME280;17111;52.130;5.028;2023-04-02T15:00:48;102671.31;;;20.81;41.09
30302;BME280;17111;52.130;5.028;2023-04-02T15:03:36;102681.38;;;20.79;40.91
30302;BME280;17111;52.130;5.028;2023-04-02T15:06:10;102676.00;;;20.79;41.60
30302;BME280;17111;52.130;5.028;2023-04-02T15:09:14;102673.53;;;20.76;41.47
30302;BME280;17111;52.130;5.028;2023-04-02T15:11:58;102678.06;;;20.75;40.93
30302;BME280;17111;52.130;5.028;2023-04-02T15:14:30;102679.03;;;20.74;41.17
30302;BME280;17111;52.130;5.028;2023-04-02T15:16:59;102687.13;;;20.74;41.95
30302;BME280;17111;52.130;5.028;2023-04-02T15:19:26;102685.56;;;20.72;41.81
30302;BME280;17111;52.130;5.028;2023-04-02T15:30:24;102690.19;;;20.69;41.27
30302;BME280;17111;52.130;5.028;2023-04-02T15:32:56;102695.34;;;20.73;40.74
30302;BME280;17111;52.130;5.028;2023-04-02T15:35:47;102688.72;;;20.77;40.39
30302;BME280;17111;52.130;5.028;2023-04-02T15:38:22;102692.72;;;20.82;40.39
30302;BME280;17111;52.130;5.028;2023-04-02T15:40:55;102706.56;;;20.89;40.19
30302;BME280;17111;52.130;5.028;2023-04-02T15:43:43;102694.53;;;20.93;40.46
30302;BME280;17111;52.130;5.028;2023-04-02T15:46:27;102698.69;;;20.97;39.70
30302;BME280;17111;52.130;5.028;2023-04-02T15:57:34;102712.22;;;21.18;41.05
30302;BME280;17111;52.130;5.028;2023-04-02T16:11:24;102721.16;;;21.18;39.66
30302;BME280;17111;52.130;5.028;2023-04-02T16:13:57;102724.13;;;21.15;39.31
30302;BME280;17111;52.130;5.028;2023-04-02T16:16:31;102724.38;;;21.12;40.09
30302;BME280;17111;52.130;5.028;2023-04-02T16:19:16;102730.03;;;21.09;40.26